Time;durP1;ratioP1;P1;durP2;ratioP2;P2;SDS_P1;SDS_P2;PMS_P1;PMS_P2;Temp;Humidity;BMP_temperature;BMP_pressure;BME280_temperature;BME280_humidity;BME280_pressure;Samples;Min_cycle;Max_cycle;Signal;HPM_P1;HPM_P2
2022/11/10 00:00:02;;;;;;;1.33;1.23;;;11.80;99.90;;;;;;4968013;28;20275;-92
2022/11/10 00:02:29;;;;;;;3.60;1.20;;;11.80;99.90;;;;;;4936770;28;20224;-91
2022/11/10 00:04:54;;;;;;;3.70;1.40;;;11.60;99.90;;;;;;4968853;28;20216;-93
2022/11/10 00:07:24;;;;;;;0.87;0.83;;;11.50;99.90;;;;;;4952364;28;20220;-90
2022/11/10 00:09:51;;;;;;;1.07;0.53;;;11.40;99.90;;;;;;4968146;28;20188;-90
2022/11/10 00:12:18;;;;;;;1.23;0.57;;;11.30;99.90;;;;;;4936617;28;20247;-91
2022/11/10 00:17:28;;;;;;;0.70;0.70;;;11.10;99.90;;;;;;4954503;28;20224;-92
2022/11/10 00:19:54;;;;;;;2.77;0.60;;;11.10;99.90;;;;;;4968346;28;20228;-87
2022/11/10 00:22:20;;;;;;;0.60;0.60;;;11.00;99.90;;;;;;4934685;28;20181;-90
2022/11/10 00:24:45;;;;;;;4.63;1.20;;;10.90;99.90;;;;;;4969881;28;20241;-90
2022/11/10 00:27:13;;;;;;;3.40;1.27;;;10.80;99.90;;;;;;4967995;28;20228;-93
2022/11/10 00:29:40;;;;;;;1.27;0.50;;;10.70;99.90;;;;;;4967293;28;20225;-91
2022/11/10 00:32:06;;;;;;;2.63;1.13;;;10.60;99.90;;;;;;4951790;28;20247;-89
2022/11/10 00:34:32;;;;;;;2.80;1.57;;;10.60;99.90;;;;;;4969244;28;20606;-91
2022/11/10 00:36:58;;;;;;;1.33;0.90;;;10.50;99.90;;;;;;4968114;28;20725;-91
2022/11/10 00:39:24;;;;;;;1.53;0.87;;;10.40;99.90;;;;;;4935866;28;20231;-91
2022/11/10 00:41:50;;;;;;;1.10;1.00;;;10.30;99.90;;;;;;4951577;28;20244;-91
2022/11/10 00:44:16;;;;;;;5.53;1.37;;;10.30;99.90;;;;;;4968526;28;20244;-91
2022/11/10 00:46:41;;;;;;;0.80;0.80;;;10.20;99.90;;;;;;4951501;28;20323;-91
2022/11/10 00:49:07;;;;;;;0.37;0.37;;;10.20;99.90;;;;;;4952002;28;20230;-90
2022/11/10 00:51:33;;;;;;;1.70;1.20;;;10.20;99.90;;;;;;4952371;28;20236;-91
2022/11/10 00:53:58;;;;;;;6.23;0.50;;;10.20;99.90;;;;;;4935720;28;20562;-91
2022/11/10 00:56:24;;;;;;;1.87;1.23;;;10.20;99.90;;;;;;4968492;28;20228;-91
2022/11/10 00:58:50;;;;;;;0.60;0.60;;;10.10;99.90;;;;;;4967036;28;20773;-89
2022/11/10 01:01:17;;;;;;;8.57;0.70;;;10.10;99.90;;;;;;4950969;28;20232;-89
2022/11/10 01:03:43;;;;;;;2.53;1.27;;;10.10;99.90;;;;;;4951442;28;20311;-89
2022/11/10 01:06:11;;;;;;;0.57;0.57;;;10.10;99.90;;;;;;4967345;28;20308;-89
2022/11/10 01:08:38;;;;;;;0.27;0.27;;;10.10;99.90;;;;;;4967706;28;20228;-88
2022/11/10 01:11:13;;;;;;;0.20;0.20;;;10.10;99.90;;;;;;4949907;28;20276;-89
2022/11/10 01:13:39;;;;;;;1.23;0.87;;;10.10;99.90;;;;;;4968022;28;20231;-89
2022/11/10 01:16:05;;;;;;;1.27;0.90;;;10.10;99.90;;;;;;4966690;28;20204;-89
2022/11/10 01:18:31;;;;;;;3.13;0.77;;;10.10;99.90;;;;;;4967577;28;20192;-89
2022/11/10 01:20:57;;;;;;;1.57;0.83;;;10.00;99.90;;;;;;4950741;28;20244;-89
2022/11/10 01:23:23;;;;;;;2.00;1.20;;;10.00;99.90;;;;;;4951117;28;20378;-90
2022/11/10 01:25:48;;;;;;;1.27;1.13;;;10.00;99.90;;;;;;4934990;28;20225;-90
2022/11/10 01:28:14;;;;;;;5.93;1.00;;;10.00;99.90;;;;;;4950984;28;20216;-89
2022/11/10 01:30:40;;;;;;;3.07;1.53;;;10.00;99.90;;;;;;4951423;28;20229;-90
2022/11/10 01:33:06;;;;;;;2.40;0.80;;;10.00;99.90;;;;;;4966666;28;20711;-89
2022/11/10 01:35:33;;;;;;;0.40;0.40;;;10.00;99.90;;;;;;4982036;28;20232;-90
2022/11/10 01:37:59;;;;;;;1.73;0.57;;;10.00;99.90;;;;;;4982302;28;20283;-89
2022/11/10 01:40:25;;;;;;;0.87;0.87;;;10.10;99.90;;;;;;4967430;28;20217;-90
2022/11/10 01:42:56;;;;;;;3.13;1.33;;;10.00;99.90;;;;;;4967040;28;20215;-90
2022/11/10 01:45:22;;;;;;;2.80;1.37;;;10.00;99.90;;;;;;4967756;28;20642;-90
2022/11/10 01:47:51;;;;;;;2.97;0.77;;;10.00;99.90;;;;;;4966897;28;20232;-90
2022/11/10 01:50:18;;;;;;;2.13;0.63;;;10.00;99.90;;;;;;4966608;28;20220;-90
2022/11/10 01:52:47;;;;;;;0.73;0.73;;;10.00;99.90;;;;;;4967972;28;20243;-89
2022/11/10 01:55:14;;;;;;;2.13;1.17;;;10.10;99.90;;;;;;4966889;28;20185;-89
2022/11/10 01:57:41;;;;;;;4.03;0.90;;;10.10;99.90;;;;;;4968374;28;20251;-89
2022/11/10 02:00:07;;;;;;;5.83;0.93;;;10.10;99.90;;;;;;4966861;28;20247;-90
2022/11/10 02:03:04;;;;;;;3.13;1.13;;;10.10;99.90;;;;;;4934679;28;20311;-89
2022/11/10 02:05:30;;;;;;;2.23;0.77;;;10.20;99.90;;;;;;4967797;28;20224;-88
2022/11/10 02:07:56;;;;;;;0.63;0.63;;;10.20;99.90;;;;;;4966117;28;20279;-89
2022/11/10 02:10:22;;;;;;;3.67;1.20;;;10.20;99.90;;;;;;4966816;28;20197;-89
2022/11/10 02:12:48;;;;;;;6.03;2.57;;;10.20;99.90;;;;;;4951230;28;20197;-89
2022/11/10 02:15:17;;;;;;;0.50;0.30;;;10.20;99.90;;;;;;4934280;28;20523;-90
2022/11/10 02:17:44;;;;;;;1.70;1.17;;;10.20;99.90;;;;;;4966728;28;20291;-90
2022/11/10 02:20:14;;;;;;;0.50;0.50;;;10.20;99.90;;;;;;4966323;28;20225;-90
2022/11/10 02:22:40;;;;;;;1.27;0.80;;;10.30;99.90;;;;;;4967135;28;20216;-90
2022/11/10 02:25:06;;;;;;;0.93;0.67;;;10.30;99.90;;;;;;4969974;28;20189;-88
2022/11/10 02:27:32;;;;;;;6.03;1.57;;;10.30;99.90;;;;;;4953843;28;20239;-89
2022/11/10 02:29:59;;;;;;;1.53;0.70;;;10.40;99.90;;;;;;4970079;28;20607;-90
2022/11/10 02:32:25;;;;;;;4.43;1.27;;;10.40;99.90;;;;;;4960319;28;20379;-90
2022/11/10 02:34:50;;;;;;;0.67;0.67;;;10.40;99.90;;;;;;4969681;28;20315;-89
2022/11/10 02:37:16;;;;;;;0.83;0.77;;;10.40;99.90;;;;;;4937259;28;20185;-89
2022/11/10 02:39:42;;;;;;;6.80;1.73;;;10.40;99.90;;;;;;4970256;28;20208;-90
2022/11/10 02:42:09;;;;;;;4.77;1.13;;;10.40;99.90;;;;;;4953394;28;20581;-89
2022/11/10 02:44:38;;;;;;;0.27;0.27;;;10.40;99.90;;;;;;4954263;28;20236;-89
2022/11/10 02:47:05;;;;;;;0.40;0.40;;;10.40;99.90;;;;;;4969342;28;20341;-90
2022/11/10 02:49:30;;;;;;;0.70;0.70;;;10.40;99.90;;;;;;4985322;28;20221;-90
2022/11/10 02:51:56;;;;;;;1.47;0.80;;;10.40;99.90;;;;;;4953561;28;20558;-90
2022/11/10 02:54:22;;;;;;;5.20;0.57;;;10.30;99.90;;;;;;4953379;28;20216;-90
2022/11/10 02:56:48;;;;;;;0.73;0.73;;;10.30;99.90;;;;;;4969114;28;20295;-90
2022/11/10 02:59:13;;;;;;;0.50;0.50;;;10.30;99.90;;;;;;4970416;28;21163;-88
2022/11/10 03:01:39;;;;;;;1.53;1.43;;;10.30;99.90;;;;;;4953257;28;20216;-89
2022/11/10 03:04:05;;;;;;;1.13;1.00;;;10.30;99.90;;;;;;4970843;28;20217;-90
2022/11/10 03:06:32;;;;;;;6.63;1.53;;;10.30;99.90;;;;;;4970375;28;20208;-89
2022/11/10 03:08:58;;;;;;;0.80;0.60;;;10.30;99.90;;;;;;4969672;28;20283;-90
2022/11/10 03:11:24;;;;;;;0.47;0.30;;;10.30;99.90;;;;;;4969143;28;20227;-89
2022/11/10 03:13:50;;;;;;;1.27;0.77;;;10.30;99.90;;;;;;4937517;28;21024;-90
2022/11/10 03:16:15;;;;;;;8.83;1.07;;;10.30;99.90;;;;;;4969565;28;20196;-90
2022/11/10 03:18:41;;;;;;;2.00;1.20;;;10.30;99.90;;;;;;4969612;28;20647;-88
2022/11/10 03:21:07;;;;;;;2.93;1.40;;;10.30;99.90;;;;;;4953008;28;20232;-89
2022/11/10 03:23:34;;;;;;;0.50;0.50;;;10.30;99.90;;;;;;4952331;28;20694;-90
2022/11/10 03:26:02;;;;;;;3.63;0.90;;;10.40;99.90;;;;;;4969440;28;20336;-90
2022/11/10 03:28:28;;;;;;;0.77;0.73;;;10.40;99.90;;;;;;4970113;28;20224;-90
2022/11/10 03:30:54;;;;;;;1.37;1.33;;;10.40;99.90;;;;;;4953801;28;20231;-90
2022/11/10 03:33:20;;;;;;;0.40;0.40;;;10.40;99.90;;;;;;4952430;28;20244;-89
2022/11/10 03:35:45;;;;;;;7.50;1.93;;;10.40;99.90;;;;;;4969016;28;20226;-88
2022/11/10 03:38:11;;;;;;;1.33;1.33;;;10.40;99.90;;;;;;4952211;28;20216;-89
2022/11/10 03:40:37;;;;;;;9.73;1.70;;;10.40;99.90;;;;;;4968950;28;20235;-90
2022/11/10 03:43:02;;;;;;;1.53;1.43;;;10.50;99.90;;;;;;4969508;28;20204;-89
2022/11/10 03:45:28;;;;;;;0.50;0.50;;;10.50;99.90;;;;;;4968922;28;20243;-89
2022/11/10 03:47:54;;;;;;;1.97;1.27;;;10.50;99.90;;;;;;4952492;28;20236;-90
2022/11/10 03:50:20;;;;;;;2.00;1.07;;;10.60;99.90;;;;;;4936568;28;20224;-90
2022/11/10 03:52:46;;;;;;;2.37;2.10;;;10.70;99.90;;;;;;4952535;28;20231;-90
2022/11/10 03:55:15;;;;;;;15.40;1.40;;;10.70;99.90;;;;;;4969302;28;20188;-89
2022/11/10 03:57:40;;;;;;;4.83;1.43;;;10.80;99.90;;;;;;4971195;28;20196;-89
2022/11/10 04:00:08;;;;;;;0.57;0.50;;;10.80;99.90;;;;;;4952504;28;20208;-90
2022/11/10 04:02:35;;;;;;;2.37;0.80;;;10.80;99.90;;;;;;4984210;28;20224;-90
2022/11/10 04:10:29;;;;;;;1.87;0.80;;;10.70;99.90;;;;;;4955121;28;21020;-89
2022/11/10 04:15:41;;;;;;;2.43;1.17;;;10.80;99.90;;;;;;4969183;28;20216;-89
2022/11/10 04:18:24;;;;;;;1.10;0.80;;;10.90;99.90;;;;;;4969130;28;20220;-89
2022/11/10 04:20:56;;;;;;;2.30;0.80;;;10.90;99.90;;;;;;4967761;28;20227;-89
2022/11/10 04:23:26;;;;;;;0.67;0.67;;;10.90;99.90;;;;;;4951265;28;21039;-89
2022/11/10 04:26:28;;;;;;;0.50;0.50;;;10.90;99.90;;;;;;4968403;28;20220;-88
2022/11/10 04:29:00;;;;;;;1.20;1.10;;;10.90;99.90;;;;;;4968442;28;20242;-89
2022/11/10 04:31:28;;;;;;;1.63;1.53;;;10.90;99.90;;;;;;4967598;28;20224;-88
2022/11/10 04:33:55;;;;;;;1.60;0.90;;;10.90;99.90;;;;;;4968297;28;20240;-89
2022/11/10 04:36:30;;;;;;;0.93;0.60;;;10.90;99.90;;;;;;4935871;28;20312;-89
2022/11/10 04:38:56;;;;;;;0.97;0.97;;;10.90;99.90;;;;;;4967580;28;20223;-89
2022/11/10 04:41:23;;;;;;;9.17;0.70;;;10.90;99.90;;;;;;4969080;28;20698;-89
2022/11/10 04:43:49;;;;;;;5.10;1.80;;;10.90;99.90;;;;;;4967533;28;20247;-89
2022/11/10 04:46:24;;;;;;;0.17;0.17;;;10.80;99.90;;;;;;4966958;28;20224;-90
2022/11/10 04:48:51;;;;;;;4.70;0.80;;;10.80;99.90;;;;;;4969241;28;20208;-88
2022/11/10 04:51:17;;;;;;;4.73;1.00;;;10.80;99.90;;;;;;4966608;28;20213;-89
2022/11/10 04:53:43;;;;;;;1.13;0.43;;;10.90;99.90;;;;;;4967354;28;20546;-89
2022/11/10 04:56:21;;;;;;;11.53;1.20;;;10.90;99.90;;;;;;4967596;28;20717;-88
2022/11/10 04:58:47;;;;;;;0.90;0.90;;;10.90;99.90;;;;;;4967879;28;20224;-89
2022/11/10 05:01:16;;;;;;;9.23;1.57;;;10.90;99.90;;;;;;4967466;28;20201;-89
2022/11/10 05:03:42;;;;;;;2.37;1.83;;;10.90;99.90;;;;;;4968827;28;20181;-89
2022/11/10 05:06:08;;;;;;;4.67;0.70;;;10.90;99.90;;;;;;4950699;28;20220;-90
2022/11/10 05:08:35;;;;;;;1.57;1.20;;;10.90;99.90;;;;;;4967090;28;20420;-89
2022/11/10 05:11:01;;;;;;;1.20;1.10;;;11.00;99.90;;;;;;4983121;28;20315;-89
2022/11/10 05:13:27;;;;;;;2.73;2.43;;;11.00;99.90;;;;;;4967182;28;20278;-90
2022/11/10 05:15:53;;;;;;;1.77;0.50;;;11.00;99.90;;;;;;4969049;28;20352;-90
2022/11/10 05:18:19;;;;;;;1.37;0.77;;;11.00;99.90;;;;;;4966145;28;20223;-88
2022/11/10 05:20:44;;;;;;;1.30;0.70;;;11.00;99.90;;;;;;4934809;28;20594;-90
2022/11/10 05:25:55;;;;;;;3.20;0.73;;;11.00;99.90;;;;;;4967574;28;20216;-91
2022/11/10 05:28:20;;;;;;;3.47;1.23;;;11.00;99.90;;;;;;4950347;28;20216;-93
2022/11/10 05:30:46;;;;;;;13.50;1.10;;;11.00;99.90;;;;;;4968608;28;20196;-92
2022/11/10 05:33:12;;;;;;;4.77;1.23;;;11.00;99.90;;;;;;4950536;28;20285;-93
2022/11/10 05:35:38;;;;;;;1.60;0.93;;;11.00;99.90;;;;;;4950961;28;20295;-93
2022/11/10 05:38:05;;;;;;;2.43;0.60;;;11.00;99.90;;;;;;4966606;28;20224;-94
2022/11/10 05:40:31;;;;;;;7.27;1.03;;;11.00;99.90;;;;;;4966394;28;20704;-92
2022/11/10 05:42:57;;;;;;;0.93;0.83;;;11.00;99.90;;;;;;4967129;28;20219;-92
2022/11/10 05:45:25;;;;;;;4.10;1.13;;;11.00;99.90;;;;;;4966950;28;20251;-93
2022/11/10 05:47:51;;;;;;;2.57;1.27;;;11.00;99.90;;;;;;4967207;28;20583;-93
2022/11/10 05:50:18;;;;;;;3.67;1.10;;;10.90;99.90;;;;;;4950736;28;20224;-93
2022/11/10 05:52:49;;;;;;;3.50;0.53;;;10.90;99.90;;;;;;4966982;28;20220;-93
2022/11/10 05:55:17;;;;;;;0.90;0.80;;;10.90;99.90;;;;;;4967113;28;20282;-94
2022/11/10 05:57:48;;;;;;;1.27;1.23;;;10.90;99.90;;;;;;4951896;28;20246;-93
2022/11/10 06:00:16;;;;;;;2.13;1.80;;;10.90;99.90;;;;;;4971140;28;20224;-93
2022/11/10 06:02:43;;;;;;;4.40;1.37;;;10.80;99.90;;;;;;4971592;28;20312;-93
2022/11/10 06:05:09;;;;;;;1.57;1.47;;;10.80;99.90;;;;;;4970206;28;20307;-93
2022/11/10 06:07:37;;;;;;;1.23;0.70;;;10.80;99.90;;;;;;4970843;28;20801;-92
2022/11/10 06:10:04;;;;;;;2.57;1.43;;;10.80;99.90;;;;;;4971193;28;20287;-92
2022/11/10 06:12:29;;;;;;;4.73;1.27;;;10.90;99.90;;;;;;4955299;28;20228;-93
2022/11/10 06:14:56;;;;;;;0.60;0.57;;;10.90;99.90;;;;;;4970931;28;20235;-93
2022/11/10 06:17:26;;;;;;;2.20;1.77;;;10.90;99.90;;;;;;4970526;28;20833;-93
2022/11/10 06:19:52;;;;;;;8.53;1.57;;;10.90;99.90;;;;;;4939045;28;20221;-93
2022/11/10 06:22:18;;;;;;;2.80;1.40;;;10.90;99.90;;;;;;4938291;28;20189;-93
2022/11/10 06:24:43;;;;;;;4.20;1.90;;;10.90;99.90;;;;;;4955459;28;20196;-92
2022/11/10 06:27:09;;;;;;;1.80;1.67;;;10.90;99.90;;;;;;4954374;28;20252;-93
2022/11/10 06:29:35;;;;;;;1.30;1.10;;;11.00;99.90;;;;;;4939003;28;20224;-93
2022/11/10 06:32:00;;;;;;;3.80;1.60;;;11.00;99.90;;;;;;4954535;28;20221;-92
2022/11/10 06:34:26;;;;;;;6.80;1.70;;;11.10;99.90;;;;;;4970057;28;20236;-91
2022/11/10 06:36:52;;;;;;;1.20;0.93;;;11.10;99.90;;;;;;4955152;28;20205;-91
2022/11/10 06:39:18;;;;;;;5.67;1.47;;;11.10;99.90;;;;;;4953818;28;20220;-93
2022/11/10 06:41:43;;;;;;;1.53;0.90;;;11.10;99.90;;;;;;4937623;28;20562;-91
2022/11/10 06:44:10;;;;;;;2.00;0.70;;;11.10;99.90;;;;;;4969500;28;20274;-92
2022/11/10 06:46:36;;;;;;;6.53;1.30;;;11.10;99.90;;;;;;4969180;28;20290;-91
2022/11/10 06:49:03;;;;;;;9.67;2.53;;;11.10;99.90;;;;;;4954277;28;20806;-91
2022/11/10 06:51:28;;;;;;;4.00;1.33;;;11.20;99.90;;;;;;4969781;28;20212;-92
2022/11/10 06:53:54;;;;;;;4.63;2.00;;;11.20;99.90;;;;;;4969492;28;20698;-90
2022/11/10 06:56:20;;;;;;;11.40;2.47;;;11.20;99.90;;;;;;4969274;28;20235;-91
2022/11/10 06:58:46;;;;;;;6.77;0.93;;;11.20;99.90;;;;;;4952384;28;20228;-91
2022/11/10 07:01:11;;;;;;;2.17;1.77;;;11.20;99.90;;;;;;4970186;28;20197;-90
2022/11/10 07:03:38;;;;;;;2.67;0.93;;;11.20;99.90;;;;;;4937490;28;20201;-91
2022/11/10 07:06:05;;;;;;;1.40;1.03;;;11.20;99.90;;;;;;4952511;28;20315;-92
2022/11/10 07:08:30;;;;;;;10.40;2.47;;;11.20;99.90;;;;;;4936843;28;20291;-89
2022/11/10 07:10:56;;;;;;;4.90;2.07;;;11.20;99.90;;;;;;4937324;28;20671;-91
2022/11/10 07:13:22;;;;;;;2.20;1.43;;;11.20;99.90;;;;;;4937049;28;20181;-92
2022/11/10 07:15:48;;;;;;;0.70;0.43;;;11.30;99.90;;;;;;4969667;28;20192;-92
2022/11/10 07:18:14;;;;;;;10.53;1.30;;;11.30;99.90;;;;;;4936643;28;20698;-89
2022/11/10 07:20:40;;;;;;;0.97;0.97;;;11.40;99.90;;;;;;4967762;28;20221;-91
2022/11/10 07:23:07;;;;;;;3.93;1.20;;;11.40;99.90;;;;;;4969184;28;20212;-92
2022/11/10 07:25:36;;;;;;;2.07;1.97;;;11.40;99.90;;;;;;4952825;28;20258;-92
2022/11/10 07:28:05;;;;;;;5.90;1.77;;;11.40;99.90;;;;;;4937671;28;20221;-92
2022/11/10 07:30:33;;;;;;;3.90;1.23;;;11.50;99.90;;;;;;4968472;28;20229;-93
2022/11/10 07:33:05;;;;;;;3.17;1.10;;;11.50;99.90;;;;;;4968120;28;20251;-91
2022/11/10 07:35:32;;;;;;;2.50;1.73;;;11.70;99.90;;;;;;4968845;28;20239;-92
2022/11/10 07:38:01;;;;;;;4.97;1.20;;;11.80;99.90;;;;;;4953435;28;20224;-91
2022/11/10 07:40:27;;;;;;;9.83;1.13;;;12.00;99.90;;;;;;4968552;28;20231;-90
2022/11/10 07:42:53;;;;;;;7.50;1.87;;;12.10;99.90;;;;;;4952854;28;20201;-91
2022/11/10 07:45:18;;;;;;;11.70;3.67;;;12.10;99.90;;;;;;4969893;28;20717;-94
2022/11/10 07:47:44;;;;;;;1.80;1.00;;;12.10;99.90;;;;;;4952032;28;20299;-90
2022/11/10 07:50:11;;;;;;;1.40;0.67;;;12.30;99.90;;;;;;4936360;28;20339;-90
2022/11/10 07:52:36;;;;;;;1.93;1.03;;;12.30;99.90;;;;;;4968776;28;20288;-90
2022/11/10 07:55:04;;;;;;;7.23;2.30;;;12.30;99.90;;;;;;4968726;28;20196;-90
2022/11/10 07:57:29;;;;;;;8.47;4.07;;;12.30;99.90;;;;;;4952835;28;20220;-90
2022/11/10 07:59:55;;;;;;;4.63;1.13;;;12.30;99.90;;;;;;4984314;28;20232;-90
2022/11/10 08:02:21;;;;;;;6.77;1.00;;;12.40;99.90;;;;;;4952215;28;20283;-90
2022/11/10 08:04:46;;;;;;;4.93;1.87;;;12.50;99.90;;;;;;4968513;28;20281;-88
2022/11/10 08:07:12;;;;;;;10.87;0.73;;;12.50;99.90;;;;;;4968510;28;20730;-91
2022/11/10 08:09:38;;;;;;;3.80;2.23;;;12.50;99.90;;;;;;4969372;28;20195;-91
2022/11/10 08:12:04;;;;;;;0.40;0.40;;;12.50;99.90;;;;;;4960479;28;20228;-91
2022/11/10 08:14:30;;;;;;;2.67;1.30;;;12.40;99.90;;;;;;4952040;28;20224;-91
2022/11/10 08:16:56;;;;;;;2.37;1.37;;;12.40;99.90;;;;;;4935208;28;20287;-90
2022/11/10 08:19:22;;;;;;;3.23;1.13;;;12.50;99.90;;;;;;4952159;28;21348;-88
2022/11/10 08:21:47;;;;;;;5.20;1.30;;;12.50;99.90;;;;;;4935608;28;20667;-92
2022/11/10 08:24:13;;;;;;;3.53;1.30;;;12.40;99.90;;;;;;4951835;28;20229;-92
2022/11/10 08:26:39;;;;;;;6.70;1.67;;;12.40;99.90;;;;;;4968238;28;20524;-91
2022/11/10 08:29:05;;;;;;;5.63;1.27;;;12.40;99.90;;;;;;4951500;28;20603;-91
2022/11/10 08:31:32;;;;;;;3.23;1.53;;;12.50;99.90;;;;;;4951584;28;20220;-93
2022/11/10 08:33:57;;;;;;;4.70;1.60;;;12.50;99.90;;;;;;4952147;28;20237;-94
2022/11/10 08:36:23;;;;;;;1.57;1.17;;;12.60;99.90;;;;;;4952034;28;20229;-92
2022/11/10 08:38:49;;;;;;;3.43;1.27;;;12.60;99.90;;;;;;4951794;28;20753;-92
2022/11/10 08:41:15;;;;;;;10.00;1.07;;;12.70;99.90;;;;;;4950916;28;20262;-92
2022/11/10 08:43:41;;;;;;;4.83;1.33;;;12.80;99.90;;;;;;4951930;28;20228;-93
2022/11/10 08:46:07;;;;;;;2.87;1.37;;;12.80;99.90;;;;;;4968174;28;20723;-93
2022/11/10 08:48:32;;;;;;;2.43;1.20;;;12.90;99.90;;;;;;4952104;28;20307;-93
2022/11/10 08:51:00;;;;;;;3.33;1.37;;;13.10;99.90;;;;;;4951433;28;20307;-92
2022/11/10 08:53:26;;;;;;;2.30;1.40;;;13.20;99.90;;;;;;4967659;28;20220;-92
2022/11/10 08:55:52;;;;;;;1.13;1.10;;;13.40;99.90;;;;;;4951860;28;20228;-92
2022/11/10 08:58:20;;;;;;;4.63;1.33;;;13.50;99.90;;;;;;4951465;28;20219;-90
2022/11/10 09:00:47;;;;;;;5.43;0.60;;;13.60;99.90;;;;;;4969654;28;20189;-92
2022/11/10 09:03:24;;;;;;;6.63;1.93;;;13.70;99.90;;;;;;4951327;28;20220;-92
2022/11/10 09:05:51;;;;;;;9.00;1.37;;;13.90;99.90;;;;;;4966996;28;20224;-91
2022/11/10 09:08:18;;;;;;;2.83;1.27;;;13.80;99.90;;;;;;4967314;28;20303;-91
2022/11/10 09:10:46;;;;;;;7.87;1.53;;;13.90;99.90;;;;;;4967250;28;20256;-89
2022/11/10 09:13:14;;;;;;;8.13;1.50;;;13.90;99.90;;;;;;4966475;28;20203;-92
2022/11/10 09:15:41;;;;;;;1.50;1.23;;;13.90;99.90;;;;;;4967317;28;20196;-91
2022/11/10 09:18:11;;;;;;;8.73;0.80;;;13.90;99.90;;;;;;4967084;28;20239;-91
2022/11/10 09:20:38;;;;;;;5.40;1.33;;;13.80;99.90;;;;;;4967654;28;20220;-91
2022/11/10 09:23:14;;;;;;;4.30;0.97;;;14.00;99.90;;;;;;4967765;28;20217;-92
2022/11/10 09:25:41;;;;;;;4.90;1.57;;;14.10;99.90;;;;;;4968252;28;20220;-91
2022/11/10 09:28:13;;;;;;;3.20;1.20;;;14.20;99.90;;;;;;4967624;28;20232;-90
2022/11/10 09:30:40;;;;;;;6.70;1.60;;;14.40;99.90;;;;;;4967315;28;20227;-91
2022/11/10 09:33:06;;;;;;;8.80;1.33;;;14.50;99.90;;;;;;4965661;28;20216;-92
2022/11/10 09:35:31;;;;;;;2.30;1.00;;;14.50;99.90;;;;;;4950206;28;20244;-90
2022/11/10 09:37:57;;;;;;;3.77;1.77;;;14.60;99.90;;;;;;4950875;28;20312;-92
2022/11/10 09:40:29;;;;;;;12.77;2.57;;;14.60;99.90;;;;;;4934940;28;20267;-91
2022/11/10 09:42:56;;;;;;;1.00;1.00;;;14.70;99.90;;;;;;4967713;28;20204;-88
2022/11/10 09:45:32;;;;;;;3.90;1.27;;;14.70;99.90;;;;;;4966246;28;20283;-88
2022/11/10 09:48:25;;;;;;;8.13;1.90;;;14.70;99.90;;;;;;4967422;28;20282;-88
2022/11/10 09:50:51;;;;;;;1.80;1.13;;;14.80;99.90;;;;;;4967174;28;20231;-90
2022/11/10 09:53:23;;;;;;;6.63;1.63;;;14.80;99.90;;;;;;4966058;28;20220;-87
2022/11/10 09:55:53;;;;;;;2.20;1.00;;;14.90;99.90;;;;;;4966627;28;20648;-88
2022/11/10 09:58:25;;;;;;;2.57;1.17;;;15.00;99.90;;;;;;4966480;28;20197;-87
2022/11/10 10:01:05;;;;;;;2.20;1.03;;;15.20;99.90;;;;;;4968329;28;20549;-87
2022/11/10 10:03:31;;;;;;;6.80;0.63;;;15.40;99.90;;;;;;4966284;28;20216;-88
2022/11/10 10:06:01;;;;;;;0.80;0.80;;;15.40;99.90;;;;;;4966945;28;20687;-88
2022/11/10 10:08:41;;;;;;;5.10;1.00;;;15.30;99.90;;;;;;4964896;28;20756;-88
2022/11/10 10:11:24;;;;;;;10.10;1.40;;;15.40;99.90;;;;;;4965466;28;20768;-87
2022/11/10 10:14:08;;;;;;;4.63;1.40;;;15.20;99.90;;;;;;4966431;28;20631;-88
2022/11/10 10:17:00;;;;;;;3.57;1.23;;;15.30;99.90;;;;;;4966083;28;20596;-89
2022/11/10 10:19:52;;;;;;;6.70;1.40;;;15.40;99.90;;;;;;4966073;28;20227;-88
2022/11/10 10:22:41;;;;;;;2.03;1.20;;;15.40;99.90;;;;;;4940684;28;20200;-89
2022/11/10 10:25:37;;;;;;;14.93;0.77;;;15.50;99.90;;;;;;4966988;28;20200;-88
2022/11/10 10:28:25;;;;;;;2.87;1.73;;;15.70;99.90;;;;;;4955224;28;20229;-88
2022/11/10 10:30:51;;;;;;;6.50;1.23;;;15.80;99.90;;;;;;4966155;28;21002;-88
2022/11/10 10:33:20;;;;;;;9.70;2.47;;;15.70;99.90;;;;;;4964956;28;20213;-87
2022/11/10 10:35:48;;;;;;;4.73;1.13;;;15.60;99.90;;;;;;4966016;28;20249;-89
2022/11/10 10:38:22;;;;;;;7.50;1.37;;;15.70;99.90;;;;;;4957114;28;20224;-83
2022/11/10 10:40:50;;;;;;;5.13;2.27;;;15.60;99.90;;;;;;4960198;28;20278;-88
2022/11/10 10:43:16;;;;;;;6.80;1.43;;;15.50;99.90;;;;;;4965770;28;20185;-89
2022/11/10 10:45:41;;;;;;;3.60;2.20;;;15.40;99.90;;;;;;4954484;28;20568;-92
2022/11/10 10:48:27;;;;;;;4.07;1.00;;;15.30;99.90;;;;;;4970312;28;20718;-91
2022/11/10 10:50:52;;;;;;;2.93;0.93;;;15.20;99.90;;;;;;4970618;28;20212;-93
2022/11/10 10:53:21;;;;;;;3.57;2.03;;;15.10;99.90;;;;;;4938734;28;20223;-93
2022/11/10 10:56:13;;;;;;;2.50;0.80;;;15.00;99.90;;;;;;4971269;28;20220;-93
2022/11/10 10:58:57;;;;;;;6.23;1.33;;;14.90;99.90;;;;;;4971945;28;20224;-91
2022/11/10 11:01:27;;;;;;;12.27;1.03;;;14.90;99.90;;;;;;4969160;28;20223;-91
2022/11/10 11:03:53;;;;;;;3.70;0.73;;;14.90;99.90;;;;;;4969950;28;20188;-91
2022/11/10 11:06:26;;;;;;;11.63;2.03;;;14.90;99.90;;;;;;4970163;28;20227;-91
2022/11/10 11:09:15;;;;;;;4.57;0.97;;;15.10;99.90;;;;;;4970627;28;20316;-91
2022/11/10 11:11:43;;;;;;;6.13;1.40;;;14.90;99.90;;;;;;4970275;28;20220;-91
2022/11/10 11:14:20;;;;;;;9.63;1.73;;;14.80;99.90;;;;;;4968753;28;20240;-90
2022/11/10 11:17:01;;;;;;;5.50;1.53;;;14.70;99.90;;;;;;4969204;28;20224;-91
2022/11/10 11:19:34;;;;;;;7.63;2.73;;;14.70;99.90;;;;;;4969997;28;20224;-90
2022/11/10 11:22:18;;;;;;;1.60;1.30;;;14.40;99.90;;;;;;4970979;28;20193;-92
2022/11/10 11:25:05;;;;;;;2.73;1.20;;;14.30;99.90;;;;;;4968906;28;20220;-91
2022/11/10 11:27:43;;;;;;;4.10;2.30;;;14.20;99.90;;;;;;4970539;28;20236;-91
2022/11/10 11:30:13;;;;;;;3.10;1.13;;;14.10;99.90;;;;;;4969999;28;20252;-92
2022/11/10 11:32:57;;;;;;;4.70;1.90;;;14.00;99.90;;;;;;4968511;28;20252;-92
2022/11/10 11:35:47;;;;;;;2.57;1.87;;;14.00;99.90;;;;;;4967533;28;20244;-90
2022/11/10 11:38:32;;;;;;;1.30;1.20;;;13.90;99.90;;;;;;4969276;28;20239;-92
2022/11/10 11:41:28;;;;;;;10.53;2.53;;;14.00;99.90;;;;;;4968078;28;20329;-93
2022/11/10 11:44:53;;;;;;;4.83;1.17;;;14.00;99.90;;;;;;4967802;28;20291;-91
2022/11/10 11:47:39;;;;;;;2.23;1.30;;;13.90;99.90;;;;;;4900227;28;20293;-93
2022/11/10 11:50:23;;;;;;;15.60;1.40;;;13.90;99.90;;;;;;4968892;28;20228;-91
2022/11/10 11:52:56;;;;;;;3.63;1.80;;;13.80;99.90;;;;;;4969050;28;20295;-94
2022/11/10 11:55:31;;;;;;;3.67;1.57;;;13.70;99.90;;;;;;4968627;28;20569;-91
2022/11/10 11:58:04;;;;;;;11.20;2.60;;;13.70;99.90;;;;;;4968951;28;20989;-90
2022/11/10 12:00:44;;;;;;;6.43;3.03;;;13.60;99.90;;;;;;4968201;28;20213;-91
2022/11/10 12:03:51;;;;;;;18.00;3.07;;;13.60;99.90;;;;;;4968733;28;20227;-91
2022/11/10 12:06:29;;;;;;;8.67;2.20;;;13.60;99.90;;;;;;4932992;28;20220;-89
2022/11/10 12:09:20;;;;;;;8.97;3.17;;;13.60;99.90;;;;;;4968507;28;20239;-89
2022/11/10 12:12:06;;;;;;;4.67;2.63;;;13.70;99.90;;;;;;4967038;28;20741;-91
2022/11/10 12:14:50;;;;;;;3.73;2.37;;;13.60;99.90;;;;;;4983491;28;20717;-91
2022/11/10 12:17:23;;;;;;;6.23;2.17;;;13.70;99.90;;;;;;4968070;28;20311;-91
2022/11/10 12:20:11;;;;;;;9.43;2.63;;;13.60;99.90;;;;;;4969177;28;20308;-91
2022/11/10 12:22:46;;;;;;;8.83;2.10;;;13.70;99.90;;;;;;4968906;28;20220;-92
2022/11/10 12:25:22;;;;;;;7.10;2.60;;;13.70;99.90;;;;;;4968560;28;20220;-93
2022/11/10 12:27:54;;;;;;;7.33;2.00;;;13.70;99.90;;;;;;4969552;28;20211;-89
2022/11/10 12:30:20;;;;;;;4.13;2.60;;;13.80;99.90;;;;;;4969228;28;20363;-90
2022/11/10 12:33:15;;;;;;;5.77;2.43;;;13.80;99.90;;;;;;4951833;28;20611;-90
2022/11/10 12:35:44;;;;;;;6.47;2.67;;;13.80;99.90;;;;;;4968775;28;21090;-91
2022/11/10 12:38:18;;;;;;;3.73;2.20;;;13.80;99.90;;;;;;4967921;28;20228;-91
2022/11/10 12:40:52;;;;;;;2.80;2.17;;;13.90;99.90;;;;;;4968011;28;20315;-91
2022/11/10 12:43:40;;;;;;;3.83;1.73;;;13.90;99.90;;;;;;4968539;28;20183;-92
2022/11/10 12:46:10;;;;;;;14.97;3.53;;;13.90;99.90;;;;;;4969302;28;20195;-91
2022/11/10 12:49:07;;;;;;;7.57;1.23;;;14.00;99.90;;;;;;4968365;28;20236;-91
2022/11/10 12:52:02;;;;;;;4.10;1.13;;;14.10;99.90;;;;;;4934073;28;20237;-92
2022/11/10 12:54:28;;;;;;;10.57;1.77;;;14.30;99.90;;;;;;4967427;28;20251;-92
2022/11/10 12:56:55;;;;;;;11.27;1.83;;;14.30;99.90;;;;;;4966347;28;20228;-90
2022/11/10 12:59:21;;;;;;;8.87;1.50;;;14.40;99.90;;;;;;4968288;28;20258;-91
2022/11/10 13:01:56;;;;;;;4.23;1.07;;;14.40;99.90;;;;;;4967579;28;20252;-90
2022/11/10 13:04:22;;;;;;;10.63;1.53;;;14.40;99.90;;;;;;4968625;28;20191;-92
2022/11/10 13:06:51;;;;;;;10.33;2.07;;;14.50;99.90;;;;;;4950370;28;20285;-92
2022/11/10 13:09:22;;;;;;;10.57;1.33;;;14.60;99.90;;;;;;4967328;28;20270;-93
2022/11/10 13:12:14;;;;;;;7.23;1.27;;;14.60;99.90;;;;;;4967762;28;20216;-94